createdAt,value
2023-04-21T00:09:27.006Z,88.50
2023-04-21T00:19:26.052Z,89.20
2023-04-21T00:29:25.698Z,89.50
2023-04-21T00:39:25.435Z,89.50
2023-04-21T00:49:23.930Z,89.70
2023-04-21T00:59:23.052Z,90.10
2023-04-21T01:09:22.126Z,90.10
2023-04-21T01:19:21.244Z,90.50
2023-04-21T01:29:21.622Z,90.90
2023-04-21T01:39:21.311Z,91.40
2023-04-21T01:49:20.359Z,92.00
2023-04-21T01:59:20.638Z,92.30
2023-04-21T02:09:20.304Z,93.40
2023-04-21T02:19:20.570Z,93.00
2023-04-21T02:29:20.569Z,93.10
2023-04-21T02:39:20.166Z,93.00
2023-04-21T02:49:19.295Z,92.80
2023-04-21T02:59:18.578Z,92.80
2023-04-21T03:09:18.268Z,93.10
2023-04-21T03:19:18.723Z,93.10
2023-04-21T03:29:18.577Z,93.10
2023-04-21T03:39:20.095Z,93.20
2023-04-21T03:49:19.336Z,93.40
2023-04-21T03:59:18.541Z,93.40
2023-04-21T04:09:18.408Z,93.70
2023-04-21T04:19:17.277Z,93.90
2023-04-21T04:29:17.459Z,93.90
2023-04-21T04:39:17.243Z,93.80
2023-04-21T04:49:17.004Z,93.70
2023-04-21T04:59:16.281Z,93.90
2023-04-21T05:09:15.872Z,94.20
2023-04-21T05:19:17.427Z,94.20
2023-04-21T05:29:16.202Z,94.10
2023-04-21T05:39:16.187Z,93.80
2023-04-21T05:49:15.306Z,94.10
2023-04-21T05:59:14.340Z,94.10
2023-04-21T06:09:15.288Z,94.20
2023-04-21T06:19:14.265Z,94.20
2023-04-21T06:29:13.320Z,94.20
2023-04-21T06:39:12.366Z,94.40
2023-04-21T06:49:11.530Z,94.40
2023-04-21T06:59:10.795Z,94.20
2023-04-21T07:09:10.340Z,94.10
2023-04-21T07:19:09.389Z,93.80
2023-04-21T07:29:08.315Z,93.70
2023-04-21T07:39:07.596Z,93.40
2023-04-21T07:49:06.338Z,93.20
2023-04-21T07:59:05.372Z,93.10
2023-04-21T08:09:04.695Z,92.70
2023-04-21T08:19:03.256Z,92.40
2023-04-21T08:29:04.369Z,91.70
2023-04-21T08:39:03.723Z,91.70
2023-04-21T08:49:02.448Z,91.00
2023-04-21T08:59:01.308Z,90.90
2023-04-21T09:09:00.379Z,90.40
2023-04-21T09:18:59.387Z,90.00
2023-04-21T09:28:58.529Z,89.30
2023-04-21T09:39:15.310Z,88.70
2023-04-21T09:48:58.459Z,88.70
2023-04-21T09:58:57.410Z,87.50
2023-04-21T10:08:56.525Z,86.10
2023-04-21T10:18:55.486Z,84.10
2023-04-21T10:28:54.600Z,81.70
2023-04-21T10:38:53.432Z,79.40
2023-04-21T10:48:52.437Z,77.00
2023-04-21T10:58:51.959Z,72.20
2023-04-21T11:08:51.358Z,71.50
2023-04-21T11:18:50.412Z,68.60
2023-04-21T11:28:50.018Z,70.00
2023-04-21T11:38:49.307Z,70.80
2023-04-21T11:48:48.565Z,64.60
2023-04-21T11:58:47.409Z,65.70
2023-04-21T12:08:46.438Z,61.60
2023-04-21T12:18:45.402Z,63.70
2023-04-21T12:28:44.804Z,64.60
2023-04-21T12:38:44.176Z,64.60
2023-04-21T12:48:43.969Z,63.40
2023-04-21T12:58:43.732Z,61.20
2023-04-21T13:08:42.428Z,58.70
2023-04-21T13:18:41.423Z,60.30
2023-04-21T13:28:40.444Z,58.10
2023-04-21T13:38:40.184Z,57.50
2023-04-21T13:48:39.353Z,56.80
2023-04-21T13:58:38.403Z,57.60
2023-04-21T14:08:37.479Z,58.90
2023-04-21T14:18:38.048Z,59.20
2023-04-21T14:28:37.570Z,58.40
2023-04-21T14:38:36.692Z,58.90
2023-04-21T14:48:35.483Z,59.70
2023-04-21T14:58:34.686Z,58.60
2023-04-21T15:08:33.488Z,58.10
2023-04-21T15:18:32.528Z,55.60
2023-04-21T15:28:32.156Z,55.00
2023-04-21T15:38:31.558Z,55.40
2023-04-21T15:48:31.145Z,55.30
2023-04-21T15:58:30.762Z,55.10
2023-04-21T16:08:31.315Z,54.40
2023-04-21T16:18:31.145Z,56.10
2023-04-21T16:28:30.763Z,56.20
2023-04-21T16:38:29.745Z,57.00
2023-04-21T16:48:28.818Z,57.60
2023-04-21T16:58:28.197Z,57.50
2023-04-21T17:08:27.589Z,57.80
2023-04-21T17:18:26.594Z,57.10
2023-04-21T17:28:25.662Z,56.80
2023-04-21T17:38:24.742Z,56.90
2023-04-21T17:48:23.657Z,57.10
2023-04-21T17:58:22.801Z,57.70
2023-04-21T18:08:21.909Z,58.20
2023-04-21T18:18:20.756Z,58.80
2023-04-21T18:28:19.559Z,59.50
2023-04-21T18:38:18.670Z,60.40
2023-04-21T18:48:17.744Z,60.80
2023-04-21T19:09:18.548Z,61.90
2023-04-21T19:19:19.112Z,63.70
2023-04-21T19:29:17.603Z,64.30
2023-04-21T19:39:16.600Z,68.90
2023-04-21T19:49:15.962Z,72.90
2023-04-21T19:59:14.846Z,77.60
2023-04-21T20:09:13.784Z,75.80
2023-04-21T20:19:14.633Z,76.60
2023-04-21T20:29:16.811Z,80.40
2023-04-21T20:39:17.344Z,81.10
2023-04-21T20:49:16.952Z,83.20
2023-04-21T20:59:16.081Z,82.10
2023-04-21T21:09:16.345Z,82.20
2023-04-21T21:19:15.930Z,84.10
2023-04-21T21:29:14.771Z,87.40
2023-04-21T21:39:15.167Z,87.80
2023-04-21T21:49:13.782Z,87.90
2023-04-21T21:59:12.922Z,88.80
2023-04-21T22:09:11.773Z,89.00
2023-04-21T22:19:11.524Z,90.10
2023-04-21T22:29:10.877Z,90.70
2023-04-21T22:39:10.296Z,90.90
2023-04-21T22:49:09.098Z,90.90
2023-04-21T23:10:16.408Z,91.20
2023-04-21T23:20:15.860Z,91.50
2023-04-21T23:30:15.109Z,91.70
2023-04-21T23:40:14.019Z,91.60
2023-04-21T23:50:13.022Z,91.90
